sensor_id;sensor_type;location;lat;lon;timestamp;temperature;humidity
74901;DHT22;63461;51.416;6.758;2024-03-23T00:52:38;9.10;99.90
74901;DHT22;63461;51.416;6.758;2024-03-23T00:55:04;9.10;99.90
74901;DHT22;63461;51.416;6.758;2024-03-23T00:57:29;9.20;99.90
74901;DHT22;63461;51.416;6.758;2024-03-23T00:59:55;9.20;99.90
74901;DHT22;63461;51.416;6.758;2024-03-23T01:02:21;9.10;99.90
74901;DHT22;63461;51.416;6.758;2024-03-23T01:04:47;9.10;99.90
74901;DHT22;63461;51.416;6.758;2024-03-23T01:07:13;9.20;99.90
74901;DHT22;63461;51.416;6.758;2024-03-23T01:09:39;9.20;99.90
74901;DHT22;63461;51.416;6.758;2024-03-23T01:12:05;9.10;99.90
74901;DHT22;63461;51.416;6.758;2024-03-23T01:14:31;8.90;99.90
74901;DHT22;63461;51.416;6.758;2024-03-23T01:16:57;9.00;99.90
74901;DHT22;63461;51.416;6.758;2024-03-23T01:19:22;9.00;99.90
74901;DHT22;63461;51.416;6.758;2024-03-23T01:21:48;9.00;99.90
74901;DHT22;63461;51.416;6.758;2024-03-23T01:24:15;8.90;99.90
74901;DHT22;63461;51.416;6.758;2024-03-23T01:26:41;8.90;99.90
74901;DHT22;63461;51.416;6.758;2024-03-23T01:29:06;8.90;99.90
74901;DHT22;63461;51.416;6.758;2024-03-23T01:31:32;9.00;99.90
74901;DHT22;63461;51.416;6.758;2024-03-23T01:33:58;8.90;99.90
74901;DHT22;63461;51.416;6.758;2024-03-23T01:36:24;8.90;99.90
74901;DHT22;63461;51.416;6.758;2024-03-23T01:38:50;9.00;99.90
74901;DHT22;63461;51.416;6.758;2024-03-23T01:41:17;9.00;99.90
74901;DHT22;63461;51.416;6.758;2024-03-23T01:43:43;9.00;99.90
74901;DHT22;63461;51.416;6.758;2024-03-23T01:46:09;9.00;99.90
74901;DHT22;63461;51.416;6.758;2024-03-23T01:48:35;9.00;99.90
74901;DHT22;63461;51.416;6.758;2024-03-23T01:51:00;8.90;99.90
74901;DHT22;63461;51.416;6.758;2024-03-23T01:53:26;9.00;99.90
74901;DHT22;63461;51.416;6.758;2024-03-23T01:55:52;8.90;99.90
74901;DHT22;63461;51.416;6.758;2024-03-23T01:58:18;8.90;99.90
74901;DHT22;63461;51.416;6.758;2024-03-23T02:00:44;8.80;99.90
74901;DHT22;63461;51.416;6.758;2024-03-23T02:03:26;8.80;99.90
74901;DHT22;63461;51.416;6.758;2024-03-23T02:05:56;8.90;99.90
74901;DHT22;63461;51.416;6.758;2024-03-23T02:08:23;8.90;99.90
74901;DHT22;63461;51.416;6.758;2024-03-23T02:10:50;8.90;99.90
74901;DHT22;63461;51.416;6.758;2024-03-23T02:13:17;8.90;99.90
74901;DHT22;63461;51.416;6.758;2024-03-23T02:15:43;9.00;99.90
74901;DHT22;63461;51.416;6.758;2024-03-23T02:18:10;8.90;99.90
74901;DHT22;63461;51.416;6.758;2024-03-23T02:20:36;8.90;99.90
74901;DHT22;63461;51.416;6.758;2024-03-23T02:23:03;8.90;99.90
74901;DHT22;63461;51.416;6.758;2024-03-23T02:25:34;8.90;99.90
74901;DHT22;63461;51.416;6.758;2024-03-23T02:28:00;8.80;99.90
74901;DHT22;63461;51.416;6.758;2024-03-23T02:30:26;8.80;99.90
74901;DHT22;63461;51.416;6.758;2024-03-23T02:32:52;8.90;99.90
74901;DHT22;63461;51.416;6.758;2024-03-23T02:35:18;8.90;99.90
74901;DHT22;63461;51.416;6.758;2024-03-23T02:37:46;8.90;99.90
74901;DHT22;63461;51.416;6.758;2024-03-23T02:40:12;8.90;99.90
74901;DHT22;63461;51.416;6.758;2024-03-23T02:42:37;8.90;99.90
74901;DHT22;63461;51.416;6.758;2024-03-23T02:45:04;8.90;99.90
74901;DHT22;63461;51.416;6.758;2024-03-23T02:47:30;8.80;99.90
74901;DHT22;63461;51.416;6.758;2024-03-23T02:49:56;8.90;99.90
74901;DHT22;63461;51.416;6.758;2024-03-23T02:52:22;8.80;99.90
74901;DHT22;63461;51.416;6.758;2024-03-23T02:54:48;8.90;99.90
74901;DHT22;63461;51.416;6.758;2024-03-23T02:57:13;8.80;99.90
74901;DHT22;63461;51.416;6.758;2024-03-23T02:59:39;8.80;99.90
74901;DHT22;63461;51.416;6.758;2024-03-23T03:02:05;8.90;99.90
74901;DHT22;63461;51.416;6.758;2024-03-23T03:04:31;8.90;99.90
74901;DHT22;63461;51.416;6.758;2024-03-23T03:06:57;8.80;99.90
74901;DHT22;63461;51.416;6.758;2024-03-23T03:09:22;8.80;99.90
74901;DHT22;63461;51.416;6.758;2024-03-23T03:11:48;8.70;99.90
74901;DHT22;63461;51.416;6.758;2024-03-23T03:14:14;8.70;99.90
74901;DHT22;63461;51.416;6.758;2024-03-23T03:16:40;8.80;99.90
74901;DHT22;63461;51.416;6.758;2024-03-23T03:19:06;8.80;99.90
74901;DHT22;63461;51.416;6.758;2024-03-23T03:21:32;8.80;99.90
74901;DHT22;63461;51.416;6.758;2024-03-23T03:23:58;8.70;99.90
74901;DHT22;63461;51.416;6.758;2024-03-23T03:26:24;8.60;99.90
74901;DHT22;63461;51.416;6.758;2024-03-23T03:28:50;8.70;99.90
74901;DHT22;63461;51.416;6.758;2024-03-23T03:31:16;8.70;99.90
74901;DHT22;63461;51.416;6.758;2024-03-23T03:33:43;8.50;99.90
74901;DHT22;63461;51.416;6.758;2024-03-23T03:36:08;8.40;99.90
74901;DHT22;63461;51.416;6.758;2024-03-23T03:38:34;8.60;99.90
74901;DHT22;63461;51.416;6.758;2024-03-23T03:41:04;8.60;99.90
74901;DHT22;63461;51.416;6.758;2024-03-23T03:43:31;8.60;99.90
74901;DHT22;63461;51.416;6.758;2024-03-23T03:45:59;8.50;99.90
74901;DHT22;63461;51.416;6.758;2024-03-23T03:48:25;8.60;99.90
74901;DHT22;63461;51.416;6.758;2024-03-23T03:50:51;8.70;99.90
74901;DHT22;63461;51.416;6.758;2024-03-23T03:53:17;8.60;99.90
74901;DHT22;63461;51.416;6.758;2024-03-23T03:55:43;8.60;99.90
74901;DHT22;63461;51.416;6.758;2024-03-23T03:58:09;8.60;99.90
74901;DHT22;63461;51.416;6.758;2024-03-23T04:00:34;8.50;99.90
74901;DHT22;63461;51.416;6.758;2024-03-23T04:03:01;8.60;99.90
74901;DHT22;63461;51.416;6.758;2024-03-23T04:05:27;8.60;99.90
74901;DHT22;63461;51.416;6.758;2024-03-23T04:07:53;8.50;99.90
74901;DHT22;63461;51.416;6.758;2024-03-23T04:10:20;8.50;99.90
74901;DHT22;63461;51.416;6.758;2024-03-23T04:12:46;8.40;99.90
74901;DHT22;63461;51.416;6.758;2024-03-23T04:15:12;8.30;99.90
74901;DHT22;63461;51.416;6.758;2024-03-23T04:17:38;8.40;99.90
74901;DHT22;63461;51.416;6.758;2024-03-23T04:20:05;8.30;99.90
74901;DHT22;63461;51.416;6.758;2024-03-23T04:22:35;8.30;99.90
74901;DHT22;63461;51.416;6.758;2024-03-23T04:25:04;8.30;99.90
74901;DHT22;63461;51.416;6.758;2024-03-23T04:27:39;8.20;99.90
74901;DHT22;63461;51.416;6.758;2024-03-23T04:30:05;8.20;99.90
74901;DHT22;63461;51.416;6.758;2024-03-23T04:32:39;8.20;99.90
74901;DHT22;63461;51.416;6.758;2024-03-23T04:35:05;8.10;99.90
74901;DHT22;63461;51.416;6.758;2024-03-23T04:37:35;8.10;99.90
74901;DHT22;63461;51.416;6.758;2024-03-23T04:40:01;8.10;99.90
74901;DHT22;63461;51.416;6.758;2024-03-23T04:42:28;8.20;99.90
74901;DHT22;63461;51.416;6.758;2024-03-23T04:44:53;8.30;99.90
74901;DHT22;63461;51.416;6.758;2024-03-23T04:47:19;8.20;99.90
74901;DHT22;63461;51.416;6.758;2024-03-23T04:49:45;8.20;99.90
74901;DHT22;63461;51.416;6.758;2024-03-23T04:52:11;8.00;99.90
74901;DHT22;63461;51.416;6.758;2024-03-23T04:54:39;8.00;99.90
74901;DHT22;63461;51.416;6.758;2024-03-23T04:57:08;8.10;99.90
74901;DHT22;63461;51.416;6.758;2024-03-23T04:59:33;8.10;99.90
74901;DHT22;63461;51.416;6.758;2024-03-23T05:01:59;8.20;99.90
74901;DHT22;63461;51.416;6.758;2024-03-23T05:04:26;8.20;99.90
74901;DHT22;63461;51.416;6.758;2024-03-23T05:06:52;8.20;99.90
74901;DHT22;63461;51.416;6.758;2024-03-23T05:09:18;8.10;99.90
74901;DHT22;63461;51.416;6.758;2024-03-23T05:11:43;8.10;99.90
74901;DHT22;63461;51.416;6.758;2024-03-23T05:14:14;8.10;99.90
74901;DHT22;63461;51.416;6.758;2024-03-23T05:16:40;8.00;99.90
74901;DHT22;63461;51.416;6.758;2024-03-23T05:19:06;8.00;99.90
74901;DHT22;63461;51.416;6.758;2024-03-23T05:21:32;8.00;99.90
74901;DHT22;63461;51.416;6.758;2024-03-23T05:23:58;8.00;99.90
74901;DHT22;63461;51.416;6.758;2024-03-23T05:26:23;8.00;99.90
74901;DHT22;63461;51.416;6.758;2024-03-23T05:28:49;8.00;99.90
74901;DHT22;63461;51.416;6.758;2024-03-23T05:31:31;7.90;99.90
74901;DHT22;63461;51.416;6.758;2024-03-23T05:33:57;8.00;99.90
74901;DHT22;63461;51.416;6.758;2024-03-23T05:36:22;7.90;99.90
74901;DHT22;63461;51.416;6.758;2024-03-23T05:38:50;7.90;99.90
74901;DHT22;63461;51.416;6.758;2024-03-23T05:41:15;7.90;99.90
74901;DHT22;63461;51.416;6.758;2024-03-23T05:43:41;7.90;99.90
74901;DHT22;63461;51.416;6.758;2024-03-23T05:46:07;7.80;99.90
74901;DHT22;63461;51.416;6.758;2024-03-23T05:48:34;8.00;99.90
74901;DHT22;63461;51.416;6.758;2024-03-23T05:51:00;7.90;99.90
74901;DHT22;63461;51.416;6.758;2024-03-23T05:53:29;7.80;99.90
74901;DHT22;63461;51.416;6.758;2024-03-23T05:56:03;7.90;99.90
74901;DHT22;63461;51.416;6.758;2024-03-23T05:58:33;7.80;99.90
74901;DHT22;63461;51.416;6.758;2024-03-23T06:01:02;7.90;99.90
74901;DHT22;63461;51.416;6.758;2024-03-23T06:03:28;7.70;99.90
74901;DHT22;63461;51.416;6.758;2024-03-23T06:05:55;7.70;99.90
74901;DHT22;63461;51.416;6.758;2024-03-23T06:08:21;7.60;99.90
74901;DHT22;63461;51.416;6.758;2024-03-23T06:10:47;7.80;99.90
74901;DHT22;63461;51.416;6.758;2024-03-23T06:13:13;7.70;99.90
74901;DHT22;63461;51.416;6.758;2024-03-23T06:15:39;7.70;99.90
74901;DHT22;63461;51.416;6.758;2024-03-23T06:18:05;7.60;99.90
74901;DHT22;63461;51.416;6.758;2024-03-23T06:20:33;7.60;99.90
74901;DHT22;63461;51.416;6.758;2024-03-23T06:23:01;7.50;99.90
74901;DHT22;63461;51.416;6.758;2024-03-23T06:25:27;7.50;99.90
74901;DHT22;63461;51.416;6.758;2024-03-23T06:27:53;7.60;99.90
74901;DHT22;63461;51.416;6.758;2024-03-23T06:30:18;7.70;99.90
74901;DHT22;63461;51.416;6.758;2024-03-23T06:32:44;7.60;99.90
74901;DHT22;63461;51.416;6.758;2024-03-23T06:35:10;7.70;99.90
74901;DHT22;63461;51.416;6.758;2024-03-23T06:37:36;7.50;99.90
74901;DHT22;63461;51.416;6.758;2024-03-23T06:40:02;7.70;99.90
74901;DHT22;63461;51.416;6.758;2024-03-23T06:42:34;7.60;99.90
74901;DHT22;63461;51.416;6.758;2024-03-23T06:45:00;7.70;99.90
74901;DHT22;63461;51.416;6.758;2024-03-23T06:47:25;7.70;99.90
74901;DHT22;63461;51.416;6.758;2024-03-23T06:49:51;7.70;99.90
74901;DHT22;63461;51.416;6.758;2024-03-23T06:52:17;7.60;99.90
74901;DHT22;63461;51.416;6.758;2024-03-23T06:54:43;7.70;99.90
74901;DHT22;63461;51.416;6.758;2024-03-23T06:57:11;7.70;99.90
74901;DHT22;63461;51.416;6.758;2024-03-23T06:59:37;7.60;99.90
74901;DHT22;63461;51.416;6.758;2024-03-23T07:02:05;7.70;99.90
74901;DHT22;63461;51.416;6.758;2024-03-23T07:04:31;7.80;99.90
74901;DHT22;63461;51.416;6.758;2024-03-23T07:06:56;7.70;99.90
74901;DHT22;63461;51.416;6.758;2024-03-23T07:09:22;7.70;99.90
74901;DHT22;63461;51.416;6.758;2024-03-23T07:11:54;7.70;99.90
74901;DHT22;63461;51.416;6.758;2024-03-23T07:14:21;7.70;99.90
74901;DHT22;63461;51.416;6.758;2024-03-23T07:16:47;7.70;99.90
74901;DHT22;63461;51.416;6.758;2024-03-23T07:19:14;7.70;99.90
74901;DHT22;63461;51.416;6.758;2024-03-23T07:21:42;7.80;99.90
74901;DHT22;63461;51.416;6.758;2024-03-23T07:24:08;7.80;99.90
74901;DHT22;63461;51.416;6.758;2024-03-23T07:26:34;7.90;99.90
74901;DHT22;63461;51.416;6.758;2024-03-23T07:29:00;7.90;99.90
74901;DHT22;63461;51.416;6.758;2024-03-23T07:31:26;7.90;99.90
74901;DHT22;63461;51.416;6.758;2024-03-23T07:33:51;7.90;99.90
74901;DHT22;63461;51.416;6.758;2024-03-23T07:36:17;8.00;99.90
74901;DHT22;63461;51.416;6.758;2024-03-23T07:38:43;8.00;99.90
74901;DHT22;63461;51.416;6.758;2024-03-23T07:41:15;8.00;99.90
74901;DHT22;63461;51.416;6.758;2024-03-23T07:43:43;8.00;99.90
74901;DHT22;63461;51.416;6.758;2024-03-23T07:46:09;8.00;99.90
74901;DHT22;63461;51.416;6.758;2024-03-23T07:48:35;8.00;99.90
74901;DHT22;63461;51.416;6.758;2024-03-23T07:51:06;8.10;99.90
74901;DHT22;63461;51.416;6.758;2024-03-23T07:53:33;8.10;99.90
74901;DHT22;63461;51.416;6.758;2024-03-23T07:56:07;8.10;99.90
74901;DHT22;63461;51.416;6.758;2024-03-23T07:58:33;8.10;99.90
74901;DHT22;63461;51.416;6.758;2024-03-23T08:01:13;8.20;99.90
74901;DHT22;63461;51.416;6.758;2024-03-23T08:03:41;8.20;99.90
74901;DHT22;63461;51.416;6.758;2024-03-23T08:08:36;8.20;99.90
74901;DHT22;63461;51.416;6.758;2024-03-23T08:11:02;8.20;99.90
74901;DHT22;63461;51.416;6.758;2024-03-23T08:13:29;8.40;99.90
74901;DHT22;63461;51.416;6.758;2024-03-23T08:15:59;8.40;99.90
74901;DHT22;63461;51.416;6.758;2024-03-23T08:18:25;8.40;99.90
74901;DHT22;63461;51.416;6.758;2024-03-23T08:21:01;8.50;99.90
74901;DHT22;63461;51.416;6.758;2024-03-23T08:23:29;8.70;99.90
74901;DHT22;63461;51.416;6.758;2024-03-23T08:25:58;8.80;99.90
74901;DHT22;63461;51.416;6.758;2024-03-23T08:28:25;8.80;99.90
74901;DHT22;63461;51.416;6.758;2024-03-23T08:30:52;8.90;99.90
74901;DHT22;63461;51.416;6.758;2024-03-23T08:33:17;9.00;99.90
74901;DHT22;63461;51.416;6.758;2024-03-23T08:36:02;8.80;99.90
74901;DHT22;63461;51.416;6.758;2024-03-23T08:38:29;8.60;99.90
74901;DHT22;63461;51.416;6.758;2024-03-23T08:41:02;8.40;99.90
74901;DHT22;63461;51.416;6.758;2024-03-23T08:43:29;8.40;99.90
74901;DHT22;63461;51.416;6.758;2024-03-23T08:46:08;8.30;99.90
74901;DHT22;63461;51.416;6.758;2024-03-23T08:48:35;8.20;99.90
74901;DHT22;63461;51.416;6.758;2024-03-23T08:51:05;8.20;99.90
74901;DHT22;63461;51.416;6.758;2024-03-23T08:53:32;8.20;99.90
74901;DHT22;63461;51.416;6.758;2024-03-23T08:55:58;8.10;99.90
74901;DHT22;63461;51.416;6.758;2024-03-23T08:58:26;8.20;99.90
74901;DHT22;63461;51.416;6.758;2024-03-23T09:00:53;8.30;99.90
74901;DHT22;63461;51.416;6.758;2024-03-23T09:03:22;8.20;99.90
74901;DHT22;63461;51.416;6.758;2024-03-23T09:05:48;8.20;99.90
74901;DHT22;63461;51.416;6.758;2024-03-23T09:08:14;8.20;99.90
74901;DHT22;63461;51.416;6.758;2024-03-23T09:10:41;8.30;99.90
74901;DHT22;63461;51.416;6.758;2024-03-23T09:13:07;8.40;99.90
74901;DHT22;63461;51.416;6.758;2024-03-23T09:15:37;8.40;99.90
74901;DHT22;63461;51.416;6.758;2024-03-23T09:18:04;8.50;99.90
74901;DHT22;63461;51.416;6.758;2024-03-23T09:20:34;8.50;99.90
74901;DHT22;63461;51.416;6.758;2024-03-23T09:23:03;8.50;99.90
74901;DHT22;63461;51.416;6.758;2024-03-23T09:25:31;8.70;99.90
74901;DHT22;63461;51.416;6.758;2024-03-23T09:27:58;8.90;99.90
74901;DHT22;63461;51.416;6.758;2024-03-23T09:30:24;9.10;99.90
74901;DHT22;63461;51.416;6.758;2024-03-23T09:32:49;9.40;99.90
74901;DHT22;63461;51.416;6.758;2024-03-23T09:35:15;9.50;99.90
74901;DHT22;63461;51.416;6.758;2024-03-23T09:37:44;9.50;99.90
74901;DHT22;63461;51.416;6.758;2024-03-23T09:40:11;9.50;99.90
74901;DHT22;63461;51.416;6.758;2024-03-23T09:42:37;9.40;99.90
74901;DHT22;63461;51.416;6.758;2024-03-23T09:45:05;9.30;99.90
74901;DHT22;63461;51.416;6.758;2024-03-23T09:47:35;9.30;99.90
74901;DHT22;63461;51.416;6.758;2024-03-23T09:50:01;9.20;99.90
74901;DHT22;63461;51.416;6.758;2024-03-23T09:52:29;9.40;99.90
74901;DHT22;63461;51.416;6.758;2024-03-23T09:54:55;9.30;99.90
74901;DHT22;63461;51.416;6.758;2024-03-23T09:57:23;9.20;99.90
74901;DHT22;63461;51.416;6.758;2024-03-23T09:59:49;9.20;99.90
74901;DHT22;63461;51.416;6.758;2024-03-23T10:02:16;9.30;99.90
74901;DHT22;63461;51.416;6.758;2024-03-23T10:04:43;9.30;99.90
74901;DHT22;63461;51.416;6.758;2024-03-23T10:07:14;9.30;99.90
74901;DHT22;63461;51.416;6.758;2024-03-23T10:09:40;9.40;99.90
74901;DHT22;63461;51.416;6.758;2024-03-23T10:12:13;9.40;99.90
74901;DHT22;63461;51.416;6.758;2024-03-23T10:14:40;9.70;99.90
74901;DHT22;63461;51.416;6.758;2024-03-23T10:17:18;9.70;99.90
74901;DHT22;63461;51.416;6.758;2024-03-23T10:19:45;9.70;99.90
74901;DHT22;63461;51.416;6.758;2024-03-23T10:22:18;9.80;99.90
74901;DHT22;63461;51.416;6.758;2024-03-23T10:24:45;10.00;99.90
74901;DHT22;63461;51.416;6.758;2024-03-23T10:27:21;10.10;99.90
74901;DHT22;63461;51.416;6.758;2024-03-23T10:29:51;10.30;99.90
74901;DHT22;63461;51.416;6.758;2024-03-23T10:32:17;10.40;99.90
74901;DHT22;63461;51.416;6.758;2024-03-23T10:34:45;10.20;99.90
74901;DHT22;63461;51.416;6.758;2024-03-23T10:37:11;9.70;99.90
74901;DHT22;63461;51.416;6.758;2024-03-23T10:39:39;8.90;99.90
74901;DHT22;63461;51.416;6.758;2024-03-23T10:42:05;8.90;99.90
74901;DHT22;63461;51.416;6.758;2024-03-23T10:44:32;8.70;99.90
74901;DHT22;63461;51.416;6.758;2024-03-23T10:47:02;8.80;99.90
74901;DHT22;63461;51.416;6.758;2024-03-23T10:49:35;9.00;99.90
74901;DHT22;63461;51.416;6.758;2024-03-23T10:52:03;8.60;99.90
74901;DHT22;63461;51.416;6.758;2024-03-23T10:54:33;8.60;99.90
74901;DHT22;63461;51.416;6.758;2024-03-23T10:57:08;8.60;99.90
74901;DHT22;63461;51.416;6.758;2024-03-23T10:59:37;8.60;99.90
74901;DHT22;63461;51.416;6.758;2024-03-23T11:02:03;8.60;99.90
74901;DHT22;63461;51.416;6.758;2024-03-23T11:04:36;8.70;99.90
74901;DHT22;63461;51.416;6.758;2024-03-23T11:09:50;8.70;99.90
74901;DHT22;63461;51.416;6.758;2024-03-23T11:14:52;8.80;99.90
74901;DHT22;63461;51.416;6.758;2024-03-23T11:17:20;8.70;99.90
74901;DHT22;63461;51.416;6.758;2024-03-23T11:25:24;8.70;99.90
74901;DHT22;63461;51.416;6.758;2024-03-23T11:27:52;8.70;99.90
74901;DHT22;63461;51.416;6.758;2024-03-23T11:30:25;8.80;99.90
74901;DHT22;63461;51.416;6.758;2024-03-23T11:32:56;8.90;99.90
74901;DHT22;63461;51.416;6.758;2024-03-23T11:38:21;9.10;99.90
74901;DHT22;63461;51.416;6.758;2024-03-23T11:40:49;9.30;99.90
74901;DHT22;63461;51.416;6.758;2024-03-23T11:43:19;9.40;99.90
74901;DHT22;63461;51.416;6.758;2024-03-23T11:45:49;9.40;99.90
74901;DHT22;63461;51.416;6.758;2024-03-23T11:48:21;9.50;99.90
74901;DHT22;63461;51.416;6.758;2024-03-23T11:50:49;9.70;99.90
74901;DHT22;63461;51.416;6.758;2024-03-23T11:53:20;9.70;99.90
74901;DHT22;63461;51.416;6.758;2024-03-23T11:55:50;9.60;99.90
74901;DHT22;63461;51.416;6.758;2024-03-23T11:58:21;9.20;99.90
74901;DHT22;63461;51.416;6.758;2024-03-23T12:01:01;9.30;99.90
74901;DHT22;63461;51.416;6.758;2024-03-23T12:03:29;9.20;99.90
74901;DHT22;63461;51.416;6.758;2024-03-23T12:05:59;9.20;99.90
74901;DHT22;63461;51.416;6.758;2024-03-23T12:08:30;9.40;99.90
74901;DHT22;63461;51.416;6.758;2024-03-23T12:11:12;9.40;99.90
74901;DHT22;63461;51.416;6.758;2024-03-23T12:13:39;9.30;99.90
74901;DHT22;63461;51.416;6.758;2024-03-23T12:16:14;9.60;99.90
74901;DHT22;63461;51.416;6.758;2024-03-23T12:18:48;9.40;99.90
74901;DHT22;63461;51.416;6.758;2024-03-23T12:21:15;9.00;99.90
74901;DHT22;63461;51.416;6.758;2024-03-23T12:23:42;9.00;99.90
74901;DHT22;63461;51.416;6.758;2024-03-23T12:26:11;9.00;99.90
74901;DHT22;63461;51.416;6.758;2024-03-23T12:28:38;9.10;99.90
74901;DHT22;63461;51.416;6.758;2024-03-23T12:31:04;9.20;99.90
74901;DHT22;63461;51.416;6.758;2024-03-23T12:33:31;9.30;99.90
74901;DHT22;63461;51.416;6.758;2024-03-23T12:35:56;9.50;99.90
74901;DHT22;63461;51.416;6.758;2024-03-23T12:38:22;9.90;99.90
74901;DHT22;63461;51.416;6.758;2024-03-23T12:40:49;10.10;99.90
74901;DHT22;63461;51.416;6.758;2024-03-23T12:43:16;10.20;99.90
74901;DHT22;63461;51.416;6.758;2024-03-23T12:45:49;9.90;99.90
74901;DHT22;63461;51.416;6.758;2024-03-23T12:48:16;9.50;99.90
74901;DHT22;63461;51.416;6.758;2024-03-23T12:50:41;9.10;99.90
74901;DHT22;63461;51.416;6.758;2024-03-23T12:53:08;8.80;99.90
74901;DHT22;63461;51.416;6.758;2024-03-23T12:55:37;8.50;99.90
74901;DHT22;63461;51.416;6.758;2024-03-23T12:58:03;8.80;99.90
74901;DHT22;63461;51.416;6.758;2024-03-23T13:00:28;9.00;99.90
74901;DHT22;63461;51.416;6.758;2024-03-23T13:02:54;9.40;99.90
74901;DHT22;63461;51.416;6.758;2024-03-23T13:05:20;9.60;99.90
74901;DHT22;63461;51.416;6.758;2024-03-23T13:07:46;9.90;99.90
74901;DHT22;63461;51.416;6.758;2024-03-23T13:10:12;10.00;99.90
74901;DHT22;63461;51.416;6.758;2024-03-23T13:12:38;10.20;99.90
74901;DHT22;63461;51.416;6.758;2024-03-23T13:15:06;10.50;99.90
74901;DHT22;63461;51.416;6.758;2024-03-23T13:17:31;10.60;99.90
74901;DHT22;63461;51.416;6.758;2024-03-23T13:19:57;10.50;99.90
74901;DHT22;63461;51.416;6.758;2024-03-23T13:22:25;10.50;99.90
74901;DHT22;63461;51.416;6.758;2024-03-23T13:24:51;10.40;99.90
74901;DHT22;63461;51.416;6.758;2024-03-23T13:27:17;10.20;99.90
74901;DHT22;63461;51.416;6.758;2024-03-23T13:29:44;10.00;99.90
74901;DHT22;63461;51.416;6.758;2024-03-23T13:32:11;9.90;99.90
74901;DHT22;63461;51.416;6.758;2024-03-23T13:34:37;9.90;99.90
74901;DHT22;63461;51.416;6.758;2024-03-23T13:37:03;9.60;99.90
74901;DHT22;63461;51.416;6.758;2024-03-23T13:39:30;9.60;99.90
74901;DHT22;63461;51.416;6.758;2024-03-23T13:41:56;9.80;99.90
74901;DHT22;63461;51.416;6.758;2024-03-23T13:44:22;10.00;99.90
74901;DHT22;63461;51.416;6.758;2024-03-23T13:46:48;10.10;99.90
74901;DHT22;63461;51.416;6.758;2024-03-23T13:49:27;10.10;99.90
74901;DHT22;63461;51.416;6.758;2024-03-23T13:51:55;10.10;99.90
74901;DHT22;63461;51.416;6.758;2024-03-23T13:54:21;10.00;99.90
74901;DHT22;63461;51.416;6.758;2024-03-23T13:56:55;9.80;99.90
74901;DHT22;63461;51.416;6.758;2024-03-23T13:59:21;9.80;99.90
74901;DHT22;63461;51.416;6.758;2024-03-23T14:01:49;9.80;99.90
74901;DHT22;63461;51.416;6.758;2024-03-23T14:04:15;9.80;99.90
74901;DHT22;63461;51.416;6.758;2024-03-23T14:06:45;9.90;99.90
74901;DHT22;63461;51.416;6.758;2024-03-23T14:09:14;9.90;99.90
74901;DHT22;63461;51.416;6.758;2024-03-23T14:11:41;9.60;99.90
74901;DHT22;63461;51.416;6.758;2024-03-23T14:14:09;9.50;99.90
74901;DHT22;63461;51.416;6.758;2024-03-23T14:16:35;9.50;99.90
74901;DHT22;63461;51.416;6.758;2024-03-23T14:19:00;9.60;99.90
74901;DHT22;63461;51.416;6.758;2024-03-23T14:21:26;9.70;99.90
74901;DHT22;63461;51.416;6.758;2024-03-23T14:23:52;9.90;99.90
74901;DHT22;63461;51.416;6.758;2024-03-23T14:26:20;10.00;99.90
74901;DHT22;63461;51.416;6.758;2024-03-23T14:28:46;9.90;99.90
74901;DHT22;63461;51.416;6.758;2024-03-23T14:31:12;9.90;99.90
74901;DHT22;63461;51.416;6.758;2024-03-23T14:33:38;10.00;99.90
74901;DHT22;63461;51.416;6.758;2024-03-23T14:36:07;10.10;99.90
74901;DHT22;63461;51.416;6.758;2024-03-23T14:38:33;10.10;99.90
74901;DHT22;63461;51.416;6.758;2024-03-23T14:41:00;10.00;99.90
74901;DHT22;63461;51.416;6.758;2024-03-23T14:43:26;9.90;99.90
74901;DHT22;63461;51.416;6.758;2024-03-23T14:46:15;9.70;99.90
74901;DHT22;63461;51.416;6.758;2024-03-23T14:48:44;9.70;99.90
74901;DHT22;63461;51.416;6.758;2024-03-23T14:51:12;9.60;99.90
74901;DHT22;63461;51.416;6.758;2024-03-23T14:53:39;9.70;99.90
74901;DHT22;63461;51.416;6.758;2024-03-23T14:56:06;9.60;99.90
74901;DHT22;63461;51.416;6.758;2024-03-23T14:58:32;9.50;99.90
74901;DHT22;63461;51.416;6.758;2024-03-23T15:01:01;9.70;99.90
74901;DHT22;63461;51.416;6.758;2024-03-23T15:03:27;9.90;99.90
74901;DHT22;63461;51.416;6.758;2024-03-23T15:05:58;10.10;99.90
74901;DHT22;63461;51.416;6.758;2024-03-23T15:08:25;10.10;99.90
74901;DHT22;63461;51.416;6.758;2024-03-23T15:10:51;10.10;99.90
74901;DHT22;63461;51.416;6.758;2024-03-23T15:13:17;10.00;99.90
74901;DHT22;63461;51.416;6.758;2024-03-23T15:15:43;9.90;99.90
74901;DHT22;63461;51.416;6.758;2024-03-23T15:18:13;9.90;99.90
74901;DHT22;63461;51.416;6.758;2024-03-23T15:20:52;10.00;99.90
74901;DHT22;63461;51.416;6.758;2024-03-23T15:23:18;10.00;99.90
74901;DHT22;63461;51.416;6.758;2024-03-23T15:25:44;9.90;99.90
74901;DHT22;63461;51.416;6.758;2024-03-23T15:28:10;10.00;99.90
74901;DHT22;63461;51.416;6.758;2024-03-23T15:30:36;9.90;99.90
74901;DHT22;63461;51.416;6.758;2024-03-23T15:33:01;9.80;99.90
74901;DHT22;63461;51.416;6.758;2024-03-23T15:35:28;9.90;99.90
74901;DHT22;63461;51.416;6.758;2024-03-23T15:37:54;9.80;99.90
74901;DHT22;63461;51.416;6.758;2024-03-23T15:40:19;9.70;99.90
74901;DHT22;63461;51.416;6.758;2024-03-23T15:42:47;9.70;99.90
74901;DHT22;63461;51.416;6.758;2024-03-23T15:45:13;9.60;99.90
74901;DHT22;63461;51.416;6.758;2024-03-23T15:47:38;9.50;99.90
74901;DHT22;63461;51.416;6.758;2024-03-23T15:50:05;9.50;99.90
74901;DHT22;63461;51.416;6.758;2024-03-23T15:52:35;9.40;99.90
74901;DHT22;63461;51.416;6.758;2024-03-23T15:55:02;9.40;99.90
74901;DHT22;63461;51.416;6.758;2024-03-23T15:57:33;9.30;99.90
74901;DHT22;63461;51.416;6.758;2024-03-23T15:59:58;9.30;99.90
74901;DHT22;63461;51.416;6.758;2024-03-23T16:02:24;9.20;99.90
74901;DHT22;63461;51.416;6.758;2024-03-23T16:04:50;9.20;99.90
74901;DHT22;63461;51.416;6.758;2024-03-23T16:07:16;9.30;99.90
74901;DHT22;63461;51.416;6.758;2024-03-23T16:09:42;9.40;99.90
74901;DHT22;63461;51.416;6.758;2024-03-23T16:12:07;9.40;99.90
74901;DHT22;63461;51.416;6.758;2024-03-23T16:14:33;9.40;99.90
74901;DHT22;63461;51.416;6.758;2024-03-23T16:16:59;9.30;99.90
74901;DHT22;63461;51.416;6.758;2024-03-23T16:19:24;9.20;99.90
74901;DHT22;63461;51.416;6.758;2024-03-23T16:21:50;8.90;99.90
74901;DHT22;63461;51.416;6.758;2024-03-23T16:24:16;9.10;99.90
74901;DHT22;63461;51.416;6.758;2024-03-23T16:26:42;9.00;99.90
74901;DHT22;63461;51.416;6.758;2024-03-23T16:29:11;9.00;99.90
74901;DHT22;63461;51.416;6.758;2024-03-23T16:31:36;9.10;99.90
74901;DHT22;63461;51.416;6.758;2024-03-23T16:34:02;9.00;99.90
74901;DHT22;63461;51.416;6.758;2024-03-23T16:36:28;9.00;99.90
74901;DHT22;63461;51.416;6.758;2024-03-23T16:38:54;8.90;99.90
74901;DHT22;63461;51.416;6.758;2024-03-23T16:41:20;8.90;99.90
74901;DHT22;63461;51.416;6.758;2024-03-23T16:43:46;8.90;99.90
74901;DHT22;63461;51.416;6.758;2024-03-23T16:46:13;9.00;99.90
74901;DHT22;63461;51.416;6.758;2024-03-23T16:48:41;9.10;99.90
74901;DHT22;63461;51.416;6.758;2024-03-23T16:51:08;9.00;99.90
74901;DHT22;63461;51.416;6.758;2024-03-23T16:53:35;8.90;99.90